Time;durP1;ratioP1;P1;durP2;ratioP2;P2;SDS_P1;SDS_P2;PMS_P1;PMS_P2;Temp;Humidity;BMP_temperature;BMP_pressure;BME280_temperature;BME280_humidity;BME280_pressure;Samples;Min_cycle;Max_cycle;Signal;HPM_P1;HPM_P2
2022/10/13 00:02:24;;;;;;;5.05;1.55;;;;;;;;;;6145132;23;20027;-45
2022/10/13 00:04:50;;;;;;;4.23;2.60;;;;;;;;;;6148922;23;20021;-44
2022/10/13 00:07:17;;;;;;;2.53;1.15;;;;;;;;;;6145914;23;20017;-48
2022/10/13 00:09:45;;;;;;;2.05;0.52;;;;;;;;;;6145919;23;20021;-45
2022/10/13 00:12:11;;;;;;;3.63;1.73;;;;;;;;;;6150260;23;20017;-48
2022/10/13 00:14:38;;;;;;;2.30;0.80;;;;;;;;;;6143643;23;20029;-43
2022/10/13 00:17:05;;;;;;;3.37;1.57;;;;;;;;;;6155106;23;20021;-46
2022/10/13 00:19:32;;;;;;;2.88;0.93;;;;;;;;;;6142570;23;20017;-45
2022/10/13 00:21:58;;;;;;;4.35;1.67;;;;;;;;;;6154774;23;20023;-46
2022/10/13 00:24:25;;;;;;;3.08;1.00;;;;;;;;;;6146695;23;20022;-45
2022/10/13 00:26:54;;;;;;;3.47;0.98;;;;;;;;;;6156453;23;20013;-49
2022/10/13 00:29:20;;;;;;;2.53;0.73;;;;;;;;;;6146536;23;20025;-46
2022/10/13 00:31:47;;;;;;;3.10;1.20;;;;;;;;;;6156786;23;20388;-48
2022/10/13 00:34:13;;;;;;;5.30;1.17;;;;;;;;;;6150185;23;20364;-46
2022/10/13 00:36:40;;;;;;;5.50;1.45;;;;;;;;;;6146609;23;20332;-45
2022/10/13 00:39:07;;;;;;;3.28;1.45;;;;;;;;;;6148787;23;20348;-44
2022/10/13 00:41:33;;;;;;;3.53;1.53;;;;;;;;;;6151262;23;20043;-46
2022/10/13 00:44:02;;;;;;;3.13;1.10;;;;;;;;;;6156237;23;20017;-46
2022/10/13 00:46:30;;;;;;;2.40;0.63;;;;;;;;;;6149257;23;20033;-46
2022/10/13 00:48:57;;;;;;;3.63;1.20;;;;;;;;;;6160773;23;20043;-47
2022/10/13 00:51:25;;;;;;;2.88;1.00;;;;;;;;;;6139864;23;20458;-47
2022/10/13 00:53:53;;;;;;;4.80;1.47;;;;;;;;;;6152966;23;20021;-43
2022/10/13 00:56:21;;;;;;;2.53;1.00;;;;;;;;;;6143318;23;20111;-45
2022/10/13 00:58:48;;;;;;;2.78;1.00;;;;;;;;;;6161698;23;20448;-44
2022/10/13 01:01:16;;;;;;;2.55;1.23;;;;;;;;;;6148094;23;20025;-47
2022/10/13 01:03:43;;;;;;;2.95;0.98;;;;;;;;;;6153702;23;20444;-46
2022/10/13 01:06:11;;;;;;;3.30;1.00;;;;;;;;;;6149890;23;20434;-46
2022/10/13 01:08:38;;;;;;;3.25;1.20;;;;;;;;;;6152845;23;20095;-44
2022/10/13 01:11:17;;;;;;;6.38;1.52;;;;;;;;;;6148501;23;20025;-46
2022/10/13 01:13:48;;;;;;;3.17;0.93;;;;;;;;;;6154450;23;20336;-46
2022/10/13 01:16:22;;;;;;;4.38;1.20;;;;;;;;;;6146486;23;20016;-49
2022/10/13 01:18:54;;;;;;;2.00;0.50;;;;;;;;;;6154680;23;20044;-46
2022/10/13 01:21:25;;;;;;;3.72;1.58;;;;;;;;;;6159404;23;20451;-48
2022/10/13 01:24:10;;;;;;;2.22;0.63;;;;;;;;;;6147345;23;20017;-46
2022/10/13 01:26:53;;;;;;;2.13;0.38;;;;;;;;;;6157960;23;20029;-49
2022/10/13 01:29:34;;;;;;;2.45;0.82;;;;;;;;;;6145019;23;20444;-50
2022/10/13 01:32:07;;;;;;;2.27;0.70;;;;;;;;;;6153800;23;20055;-46
2022/10/13 01:34:37;;;;;;;1.88;0.40;;;;;;;;;;6148924;23;20017;-48
2022/10/13 01:37:05;;;;;;;2.58;0.52;;;;;;;;;;6150421;23;20037;-48
2022/10/13 01:39:34;;;;;;;2.03;0.55;;;;;;;;;;6152788;23;20397;-48
2022/10/13 01:42:10;;;;;;;2.22;0.60;;;;;;;;;;6158498;23;20076;-46
2022/10/13 01:44:39;;;;;;;2.70;0.63;;;;;;;;;;6117371;23;20059;-47
2022/10/13 01:47:07;;;;;;;1.90;0.55;;;;;;;;;;6157750;23;20530;-46
2022/10/13 01:49:35;;;;;;;2.58;0.70;;;;;;;;;;6154271;23;20023;-48
2022/10/13 01:52:03;;;;;;;1.55;0.30;;;;;;;;;;6159738;23;20032;-46
2022/10/13 01:54:29;;;;;;;4.95;1.08;;;;;;;;;;6155762;23;20033;-47
2022/10/13 01:56:56;;;;;;;2.30;0.50;;;;;;;;;;6159091;23;20402;-45
2022/10/13 01:59:24;;;;;;;1.60;0.45;;;;;;;;;;6151120;23;20040;-50
2022/10/13 02:01:57;;;;;;;3.03;0.65;;;;;;;;;;6164140;23;20091;-50
2022/10/13 02:04:32;;;;;;;2.13;0.82;;;;;;;;;;6155822;23;20515;-48
2022/10/13 02:07:01;;;;;;;2.38;0.73;;;;;;;;;;6150520;23;20024;-46
2022/10/13 02:09:30;;;;;;;1.97;0.40;;;;;;;;;;6160079;23;20017;-47
2022/10/13 02:11:59;;;;;;;5.95;0.60;;;;;;;;;;6152549;23;20021;-46
2022/10/13 02:14:28;;;;;;;3.92;1.00;;;;;;;;;;6159792;23;20587;-48
2022/10/13 02:16:55;;;;;;;3.95;0.98;;;;;;;;;;6142959;23;20025;-48
2022/10/13 02:19:22;;;;;;;1.55;0.32;;;;;;;;;;6154053;23;20048;-44
2022/10/13 02:21:51;;;;;;;2.67;1.00;;;;;;;;;;6160387;23;20397;-47
2022/10/13 02:24:18;;;;;;;2.30;0.93;;;;;;;;;;6146783;23;20024;-49
2022/10/13 02:26:45;;;;;;;6.57;1.42;;;;;;;;;;6156794;23;20024;-48
2022/10/13 02:29:12;;;;;;;1.65;0.50;;;;;;;;;;6147374;23;20013;-47
2022/10/13 02:31:40;;;;;;;2.75;0.77;;;;;;;;;;6154318;23;20072;-49
2022/10/13 02:34:07;;;;;;;2.00;0.53;;;;;;;;;;6148855;23;20016;-48
2022/10/13 02:36:34;;;;;;;1.80;0.40;;;;;;;;;;6151719;23;20013;-48
2022/10/13 02:39:01;;;;;;;3.58;0.55;;;;;;;;;;6158850;23;20580;-46
2022/10/13 02:41:28;;;;;;;2.08;0.32;;;;;;;;;;6148872;23;20300;-47
2022/10/13 02:43:55;;;;;;;1.50;0.30;;;;;;;;;;6089147;23;20555;-46
2022/10/13 02:46:22;;;;;;;2.77;0.57;;;;;;;;;;6089945;23;20021;-47
2022/10/13 02:48:49;;;;;;;1.67;0.40;;;;;;;;;;6096659;23;20036;-48
2022/10/13 02:51:15;;;;;;;2.25;0.70;;;;;;;;;;6096441;23;20029;-46
2022/10/13 02:53:42;;;;;;;2.15;0.90;;;;;;;;;;6097996;23;20100;-45
2022/10/13 02:56:10;;;;;;;2.13;0.50;;;;;;;;;;6094225;23;20476;-46
2022/10/13 02:58:37;;;;;;;2.73;0.57;;;;;;;;;;6093040;23;20448;-48
2022/10/13 03:01:06;;;;;;;3.85;0.63;;;;;;;;;;6091813;23;20514;-45
2022/10/13 03:03:33;;;;;;;1.85;0.50;;;;;;;;;;6100424;23;20543;-46
2022/10/13 03:06:00;;;;;;;1.88;0.40;;;;;;;;;;6098666;23;20079;-46
2022/10/13 03:08:26;;;;;;;1.65;0.30;;;;;;;;;;6134134;23;20017;-47
2022/10/13 03:10:53;;;;;;;2.07;0.90;;;;;;;;;;6149452;23;20100;-49
2022/10/13 03:13:21;;;;;;;2.28;0.50;;;;;;;;;;6151907;23;20013;-47
2022/10/13 03:15:48;;;;;;;2.28;0.60;;;;;;;;;;6155391;23;20040;-48
2022/10/13 03:18:14;;;;;;;1.90;0.60;;;;;;;;;;6149620;23;20020;-46
2022/10/13 03:20:41;;;;;;;1.85;0.40;;;;;;;;;;6160682;23;20020;-49
2022/10/13 03:23:07;;;;;;;3.87;1.03;;;;;;;;;;6146107;23;20071;-48
2022/10/13 03:25:34;;;;;;;2.85;0.85;;;;;;;;;;6150525;23;20079;-46
2022/10/13 03:28:01;;;;;;;2.35;0.60;;;;;;;;;;6165283;23;20490;-46
2022/10/13 03:30:28;;;;;;;2.15;0.70;;;;;;;;;;6145337;23;20028;-49
2022/10/13 03:32:55;;;;;;;2.33;0.55;;;;;;;;;;6145658;23;20432;-46
2022/10/13 03:35:22;;;;;;;2.33;0.30;;;;;;;;;;6151969;23;20025;-47
2022/10/13 03:37:49;;;;;;;2.22;0.45;;;;;;;;;;6123999;23;20459;-46
2022/10/13 03:40:16;;;;;;;8.82;0.85;;;;;;;;;;6148985;23;20017;-47
2022/10/13 03:42:42;;;;;;;1.90;0.43;;;;;;;;;;6163987;23;20410;-46
2022/10/13 03:45:09;;;;;;;1.48;0.30;;;;;;;;;;6149425;23;20096;-50
2022/10/13 03:47:37;;;;;;;4.47;0.67;;;;;;;;;;6150151;23;20021;-46
2022/10/13 03:50:04;;;;;;;1.88;0.60;;;;;;;;;;6156691;23;20387;-47
2022/10/13 03:52:32;;;;;;;2.35;0.80;;;;;;;;;;6156818;23;20087;-47
2022/10/13 03:54:58;;;;;;;3.67;0.50;;;;;;;;;;6153873;23;20017;-50
2022/10/13 03:57:25;;;;;;;2.38;0.75;;;;;;;;;;6148282;23;20498;-48
2022/10/13 03:59:51;;;;;;;1.57;0.60;;;;;;;;;;6165898;23;20017;-48
2022/10/13 04:02:18;;;;;;;1.75;0.38;;;;;;;;;;6147940;23;20013;-46
2022/10/13 04:04:46;;;;;;;2.15;0.68;;;;;;;;;;6154499;23;20017;-46
2022/10/13 04:07:12;;;;;;;1.60;0.50;;;;;;;;;;6155266;23;20024;-48
2022/10/13 04:09:39;;;;;;;2.03;0.50;;;;;;;;;;6162262;23;20020;-45
2022/10/13 04:12:05;;;;;;;1.40;0.40;;;;;;;;;;6149949;23;20072;-48
2022/10/13 04:14:32;;;;;;;1.73;0.52;;;;;;;;;;6151337;23;20029;-48
2022/10/13 04:16:58;;;;;;;2.20;0.52;;;;;;;;;;6154849;23;20584;-47
2022/10/13 04:19:25;;;;;;;3.30;1.10;;;;;;;;;;6151183;23;20020;-48
2022/10/13 04:21:53;;;;;;;2.42;0.85;;;;;;;;;;6160301;23;20013;-46
2022/10/13 04:24:19;;;;;;;2.30;0.80;;;;;;;;;;6143575;23;20522;-47
2022/10/13 04:26:46;;;;;;;1.60;0.50;;;;;;;;;;6162097;23;20021;-48
2022/10/13 04:29:12;;;;;;;3.03;0.60;;;;;;;;;;6148421;23;20068;-48
2022/10/13 04:31:41;;;;;;;2.13;0.52;;;;;;;;;;6161672;23;20028;-46
2022/10/13 04:34:08;;;;;;;1.63;0.30;;;;;;;;;;6154607;23;20024;-47
2022/10/13 04:36:34;;;;;;;6.90;1.67;;;;;;;;;;6148468;23;20032;-47
2022/10/13 04:39:02;;;;;;;2.60;0.60;;;;;;;;;;6156874;23;20084;-46
2022/10/13 04:41:28;;;;;;;2.78;0.60;;;;;;;;;;6133493;23;20053;-46
2022/10/13 04:43:55;;;;;;;1.77;0.47;;;;;;;;;;6158031;23;20032;-47
2022/10/13 04:46:23;;;;;;;2.17;0.50;;;;;;;;;;6153153;23;20075;-47
2022/10/13 04:48:50;;;;;;;1.87;0.50;;;;;;;;;;6154326;23;20036;-48
2022/10/13 04:51:17;;;;;;;3.00;0.52;;;;;;;;;;6154626;23;20043;-48
2022/10/13 04:53:44;;;;;;;2.15;0.65;;;;;;;;;;6154630;23;20025;-49
2022/10/13 04:56:13;;;;;;;2.08;0.77;;;;;;;;;;6160241;23;20021;-46
2022/10/13 04:58:41;;;;;;;4.00;1.00;;;;;;;;;;6153240;23;20420;-47
2022/10/13 05:01:09;;;;;;;2.43;0.63;;;;;;;;;;6158118;23;20020;-46
2022/10/13 05:03:35;;;;;;;1.70;0.40;;;;;;;;;;6158923;23;20017;-47
2022/10/13 05:06:03;;;;;;;1.83;0.40;;;;;;;;;;6147149;23;20025;-46
2022/10/13 05:08:31;;;;;;;1.25;0.25;;;;;;;;;;6157272;23;20017;-47
2022/10/13 05:10:59;;;;;;;2.50;0.75;;;;;;;;;;6145724;23;20026;-46
2022/10/13 05:13:27;;;;;;;2.83;0.83;;;;;;;;;;6156513;23;20024;-46
2022/10/13 05:15:59;;;;;;;2.95;0.85;;;;;;;;;;6155892;23;20024;-48
2022/10/13 05:18:26;;;;;;;1.88;0.43;;;;;;;;;;6155822;23;20041;-45
2022/10/13 05:20:53;;;;;;;2.40;0.40;;;;;;;;;;6147574;23;20013;-47
2022/10/13 05:23:19;;;;;;;2.08;0.75;;;;;;;;;;6160010;23;20041;-48
2022/10/13 05:25:46;;;;;;;2.37;0.50;;;;;;;;;;6146945;23;20019;-46
2022/10/13 05:28:12;;;;;;;1.90;0.68;;;;;;;;;;6158678;23;20452;-48
2022/10/13 05:30:40;;;;;;;2.38;0.80;;;;;;;;;;6152898;23;20071;-48
2022/10/13 05:33:07;;;;;;;2.33;0.70;;;;;;;;;;6160169;23;20017;-45
2022/10/13 05:35:33;;;;;;;2.95;0.93;;;;;;;;;;6155372;23;20507;-47
2022/10/13 05:38:00;;;;;;;2.00;0.47;;;;;;;;;;6151829;23;20027;-46
2022/10/13 05:40:27;;;;;;;2.83;0.80;;;;;;;;;;6161156;23;20033;-48
2022/10/13 05:42:54;;;;;;;2.33;0.93;;;;;;;;;;6146884;23;20078;-47
2022/10/13 05:45:21;;;;;;;2.67;0.93;;;;;;;;;;6148594;23;20474;-49
2022/10/13 05:47:49;;;;;;;3.13;1.02;;;;;;;;;;6159317;23;20448;-47
2022/10/13 05:50:16;;;;;;;2.37;0.60;;;;;;;;;;6153987;23;20447;-46
2022/10/13 05:52:43;;;;;;;2.58;1.10;;;;;;;;;;6157194;23;20020;-48
2022/10/13 05:55:10;;;;;;;2.70;1.00;;;;;;;;;;6142823;23;20043;-46
2022/10/13 05:57:39;;;;;;;1.80;0.43;;;;;;;;;;6162511;23;20017;-46
2022/10/13 06:00:08;;;;;;;2.88;1.38;;;;;;;;;;6144410;23;20448;-46
2022/10/13 06:02:37;;;;;;;1.80;0.73;;;;;;;;;;6151655;23;20031;-48
2022/10/13 06:05:07;;;;;;;3.20;1.25;;;;;;;;;;6149092;23;20036;-47
2022/10/13 06:07:34;;;;;;;4.03;1.40;;;;;;;;;;6154031;23;20108;-47
2022/10/13 06:10:01;;;;;;;2.50;0.47;;;;;;;;;;6153661;23;20036;-49
2022/10/13 06:12:31;;;;;;;2.55;1.08;;;;;;;;;;6159001;23;20010;-47
2022/10/13 06:14:59;;;;;;;3.33;0.40;;;;;;;;;;6156930;23;20036;-46
2022/10/13 06:17:26;;;;;;;2.90;1.00;;;;;;;;;;6156742;23;20023;-45
2022/10/13 06:19:53;;;;;;;3.22;1.10;;;;;;;;;;6158447;23;20013;-47
2022/10/13 06:22:21;;;;;;;5.93;1.48;;;;;;;;;;6144704;23;20353;-48
2022/10/13 06:24:49;;;;;;;3.80;1.65;;;;;;;;;;6163100;23;20013;-45
2022/10/13 06:27:15;;;;;;;2.93;0.80;;;;;;;;;;6146650;23;20025;-47
2022/10/13 06:29:42;;;;;;;3.90;1.20;;;;;;;;;;6160457;23;20092;-49
2022/10/13 06:32:08;;;;;;;6.15;1.50;;;;;;;;;;6147289;23;20040;-46
2022/10/13 06:34:35;;;;;;;3.38;1.50;;;;;;;;;;6162097;23;20025;-45
2022/10/13 06:37:01;;;;;;;5.30;1.30;;;;;;;;;;6154908;23;20024;-48
2022/10/13 06:39:29;;;;;;;5.70;1.87;;;;;;;;;;6156888;23;20032;-46
2022/10/13 06:41:56;;;;;;;4.57;1.33;;;;;;;;;;6145266;23;20088;-48
2022/10/13 06:44:22;;;;;;;3.28;1.15;;;;;;;;;;6156123;23;20021;-45
2022/10/13 06:46:49;;;;;;;3.08;0.88;;;;;;;;;;6159660;23;20072;-47
2022/10/13 06:49:16;;;;;;;3.80;1.20;;;;;;;;;;6146776;23;20021;-45
2022/10/13 06:51:42;;;;;;;5.00;2.20;;;;;;;;;;6156500;23;20063;-48
2022/10/13 06:54:09;;;;;;;3.35;1.88;;;;;;;;;;6147086;23;20273;-46
2022/10/13 06:56:37;;;;;;;4.00;1.60;;;;;;;;;;6156926;23;20370;-46
2022/10/13 06:59:03;;;;;;;2.80;0.55;;;;;;;;;;6150556;23;20017;-50
2022/10/13 07:01:30;;;;;;;4.10;2.30;;;;;;;;;;6156554;23;20023;-47
2022/10/13 07:03:57;;;;;;;4.43;1.77;;;;;;;;;;6152306;23;20040;-46
2022/10/13 07:06:23;;;;;;;3.40;1.38;;;;;;;;;;6158534;23;20017;-46
2022/10/13 07:08:50;;;;;;;5.10;2.17;;;;;;;;;;6150497;23;20051;-46
2022/10/13 07:11:17;;;;;;;3.47;0.90;;;;;;;;;;6156358;23;20099;-45
2022/10/13 07:13:45;;;;;;;3.25;1.33;;;;;;;;;;6147455;23;20081;-49
2022/10/13 07:16:12;;;;;;;3.33;1.27;;;;;;;;;;6150126;23;20118;-48
2022/10/13 07:18:38;;;;;;;3.72;1.52;;;;;;;;;;6157564;23;20024;-50
2022/10/13 07:21:06;;;;;;;7.32;1.35;;;;;;;;;;6152555;23;20016;-45
2022/10/13 07:23:32;;;;;;;3.65;1.48;;;;;;;;;;6155671;23;20025;-47
2022/10/13 07:26:00;;;;;;;3.67;1.33;;;;;;;;;;6147104;23;20566;-45
2022/10/13 07:28:27;;;;;;;2.63;1.33;;;;;;;;;;6160020;23;20111;-48
2022/10/13 07:30:55;;;;;;;4.18;1.98;;;;;;;;;;6148654;23;20464;-45
2022/10/13 07:33:22;;;;;;;3.40;1.55;;;;;;;;;;6159203;23;20357;-47
2022/10/13 07:35:48;;;;;;;3.72;1.80;;;;;;;;;;6157246;23;20021;-45
2022/10/13 07:38:15;;;;;;;3.40;1.23;;;;;;;;;;6149003;23;20017;-48
2022/10/13 07:40:41;;;;;;;3.97;1.37;;;;;;;;;;6162400;23;20050;-47
2022/10/13 07:43:08;;;;;;;6.07;1.55;;;;;;;;;;6142213;23;20048;-46
2022/10/13 07:45:35;;;;;;;3.08;0.98;;;;;;;;;;6156937;23;20051;-46
2022/10/13 07:48:03;;;;;;;2.10;0.70;;;;;;;;;;6163914;23;20013;-45
2022/10/13 07:50:29;;;;;;;3.35;1.08;;;;;;;;;;6145250;23;20027;-48
2022/10/13 07:52:57;;;;;;;3.17;0.90;;;;;;;;;;6160948;23;20399;-48
2022/10/13 07:55:23;;;;;;;2.25;0.90;;;;;;;;;;6151298;23;20021;-46
2022/10/13 07:57:49;;;;;;;2.40;0.75;;;;;;;;;;6160781;23;20017;-47
2022/10/13 08:00:16;;;;;;;4.70;1.50;;;;;;;;;;6145626;23;20017;-46
2022/10/13 08:02:43;;;;;;;2.80;1.15;;;;;;;;;;6163868;23;20025;-48
2022/10/13 08:05:11;;;;;;;2.90;1.17;;;;;;;;;;6149624;23;20013;-47
2022/10/13 08:07:42;;;;;;;4.13;1.15;;;;;;;;;;6160004;23;20028;-48
2022/10/13 08:10:09;;;;;;;2.88;1.17;;;;;;;;;;6155953;23;20024;-47
2022/10/13 08:12:36;;;;;;;2.92;0.85;;;;;;;;;;6155348;23;20028;-47
2022/10/13 08:15:02;;;;;;;2.95;1.35;;;;;;;;;;6149909;23;20204;-45
2022/10/13 08:17:31;;;;;;;1.93;0.60;;;;;;;;;;6152424;23;20020;-47
2022/10/13 08:19:58;;;;;;;3.50;1.27;;;;;;;;;;6147420;23;20021;-47
2022/10/13 08:22:28;;;;;;;2.38;0.93;;;;;;;;;;6155278;23;20483;-47
2022/10/13 08:24:55;;;;;;;3.28;1.10;;;;;;;;;;6150268;23;20379;-46
2022/10/13 08:27:23;;;;;;;1.45;0.38;;;;;;;;;;6150070;23;20021;-52
2022/10/13 08:29:50;;;;;;;3.43;2.00;;;;;;;;;;6154898;23;20344;-51
2022/10/13 08:32:19;;;;;;;5.28;1.33;;;;;;;;;;6147911;23;20013;-47
2022/10/13 08:34:46;;;;;;;4.22;1.85;;;;;;;;;;6152333;23;20025;-46
2022/10/13 08:37:13;;;;;;;2.13;0.60;;;;;;;;;;6129356;23;20025;-46
2022/10/13 08:39:44;;;;;;;2.65;0.85;;;;;;;;;;6120614;23;20116;-48
2022/10/13 08:42:13;;;;;;;4.90;2.30;;;;;;;;;;6139601;23;20981;-47
2022/10/13 08:44:42;;;;;;;1.98;0.73;;;;;;;;;;6137261;23;20053;-46
2022/10/13 08:47:12;;;;;;;2.75;0.50;;;;;;;;;;6152197;23;20020;-47
2022/10/13 08:49:40;;;;;;;2.50;1.08;;;;;;;;;;6153605;23;20076;-48
2022/10/13 08:52:06;;;;;;;2.35;0.82;;;;;;;;;;6147145;23;20017;-47
2022/10/13 08:54:33;;;;;;;3.63;1.03;;;;;;;;;;6152822;23;20013;-48
2022/10/13 08:57:01;;;;;;;4.53;1.23;;;;;;;;;;6155988;23;20052;-47
2022/10/13 08:59:28;;;;;;;2.35;0.80;;;;;;;;;;6155936;23;20444;-48
2022/10/13 09:01:57;;;;;;;4.30;1.83;;;;;;;;;;6160048;23;20075;-46
2022/10/13 09:04:28;;;;;;;4.10;1.05;;;;;;;;;;6153321;23;20028;-45
2022/10/13 09:06:56;;;;;;;4.13;1.00;;;;;;;;;;6159561;23;20028;-49
2022/10/13 09:09:22;;;;;;;1.77;0.57;;;;;;;;;;6152311;23;20021;-46
2022/10/13 09:11:50;;;;;;;3.17;1.13;;;;;;;;;;6158733;23;20021;-45
2022/10/13 09:14:22;;;;;;;3.53;1.23;;;;;;;;;;6148651;23;20087;-49
2022/10/13 09:16:49;;;;;;;4.10;1.23;;;;;;;;;;6157787;23;20091;-47
2022/10/13 09:19:27;;;;;;;3.03;1.50;;;;;;;;;;6146893;23;20480;-46
2022/10/13 09:21:54;;;;;;;5.22;0.90;;;;;;;;;;6160014;23;20017;-49
2022/10/13 09:24:22;;;;;;;4.65;1.00;;;;;;;;;;6150757;23;20035;-47
2022/10/13 09:26:50;;;;;;;3.42;1.08;;;;;;;;;;6156404;23;20028;-48
2022/10/13 09:29:18;;;;;;;3.55;1.55;;;;;;;;;;6143976;23;20096;-46
2022/10/13 09:31:46;;;;;;;3.07;1.60;;;;;;;;;;6158551;23;20020;-48
2022/10/13 09:34:24;;;;;;;3.20;1.15;;;;;;;;;;6156563;23;20017;-49
2022/10/13 09:36:58;;;;;;;4.70;1.83;;;;;;;;;;6158444;23;20055;-48
2022/10/13 09:39:25;;;;;;;3.25;1.40;;;;;;;;;;6150028;23;20046;-48
2022/10/13 09:41:53;;;;;;;3.30;1.00;;;;;;;;;;6156248;23;20353;-49
2022/10/13 09:44:27;;;;;;;4.20;1.47;;;;;;;;;;6147236;23;20486;-49
2022/10/13 09:46:56;;;;;;;3.53;2.35;;;;;;;;;;6159224;23;20384;-49
2022/10/13 09:49:36;;;;;;;3.47;1.23;;;;;;;;;;6146677;23;20447;-48
2022/10/13 09:52:04;;;;;;;3.00;1.55;;;;;;;;;;6154587;23;20051;-47
2022/10/13 09:54:37;;;;;;;2.90;1.02;;;;;;;;;;6155382;23;20314;-45
2022/10/13 09:57:07;;;;;;;2.47;0.70;;;;;;;;;;6150478;23;20303;-47
2022/10/13 09:59:35;;;;;;;5.15;1.50;;;;;;;;;;6156423;23;20021;-46
2022/10/13 10:02:15;;;;;;;4.10;1.77;;;;;;;;;;6147863;23;20024;-48
2022/10/13 10:04:42;;;;;;;7.43;1.40;;;;;;;;;;6150679;23;20028;-47
2022/10/13 10:07:11;;;;;;;3.60;1.48;;;;;;;;;;6155003;23;20021;-47
2022/10/13 10:09:39;;;;;;;4.63;1.90;;;;;;;;;;6154071;23;20072;-48
2022/10/13 10:12:06;;;;;;;3.33;1.13;;;;;;;;;;6154168;23;20107;-47
2022/10/13 10:14:33;;;;;;;3.72;1.48;;;;;;;;;;6148627;23;20776;-49
2022/10/13 10:17:07;;;;;;;4.82;1.92;;;;;;;;;;6156943;23;20049;-48
2022/10/13 10:19:44;;;;;;;4.35;1.60;;;;;;;;;;6149009;23;20013;-46
2022/10/13 10:22:14;;;;;;;5.00;2.33;;;;;;;;;;6154798;23;20017;-46
2022/10/13 10:24:46;;;;;;;4.05;1.98;;;;;;;;;;6135310;23;20016;-46
2022/10/13 10:27:21;;;;;;;4.30;1.77;;;;;;;;;;6160422;23;20017;-47
2022/10/13 10:29:49;;;;;;;4.22;1.38;;;;;;;;;;6161356;23;20311;-46
2022/10/13 10:32:26;;;;;;;3.88;1.92;;;;;;;;;;6145008;23;20024;-49
2022/10/13 10:34:54;;;;;;;3.53;1.77;;;;;;;;;;6155545;23;20052;-47
2022/10/13 10:37:25;;;;;;;5.40;1.67;;;;;;;;;;6153238;23;20021;-49
2022/10/13 10:39:58;;;;;;;6.03;2.30;;;;;;;;;;6148002;23;20059;-48
2022/10/13 10:42:46;;;;;;;7.93;2.42;;;;;;;;;;6142108;23;20052;-46
2022/10/13 10:45:15;;;;;;;4.43;1.75;;;;;;;;;;6150654;23;20056;-46
2022/10/13 10:47:46;;;;;;;4.67;1.60;;;;;;;;;;6155672;23;20279;-47
2022/10/13 10:50:14;;;;;;;4.90;2.63;;;;;;;;;;6150832;23;20401;-49
2022/10/13 10:52:43;;;;;;;6.45;1.90;;;;;;;;;;6157103;23;20020;-47
2022/10/13 10:55:15;;;;;;;5.28;2.28;;;;;;;;;;6154659;23;20009;-46
2022/10/13 10:57:51;;;;;;;10.05;3.10;;;;;;;;;;6153932;23;20476;-47
2022/10/13 11:00:19;;;;;;;5.00;2.17;;;;;;;;;;6148403;23;20048;-48
2022/10/13 11:02:53;;;;;;;5.18;3.08;;;;;;;;;;6157556;23;20017;-46
2022/10/13 11:05:20;;;;;;;4.05;1.75;;;;;;;;;;6150034;23;20131;-45
2022/10/13 11:07:56;;;;;;;4.13;1.38;;;;;;;;;;6157601;23;20080;-46
2022/10/13 11:10:25;;;;;;;5.28;2.35;;;;;;;;;;6148154;23;20032;-47
2022/10/13 11:13:25;;;;;;;4.20;1.80;;;;;;;;;;6155903;23;20422;-48
2022/10/13 11:15:52;;;;;;;7.13;2.13;;;;;;;;;;6161668;23;20075;-49
2022/10/13 11:18:38;;;;;;;5.40;1.77;;;;;;;;;;6150275;23;20120;-49
2022/10/13 11:21:06;;;;;;;5.32;1.88;;;;;;;;;;6150292;23;20028;-50
2022/10/13 11:23:34;;;;;;;6.88;2.50;;;;;;;;;;6154434;23;20060;-48
2022/10/13 11:26:19;;;;;;;5.93;2.67;;;;;;;;;;6151768;23;20075;-51
2022/10/13 11:28:46;;;;;;;5.45;2.17;;;;;;;;;;6145575;23;20020;-47
2022/10/13 11:31:28;;;;;;;3.92;2.00;;;;;;;;;;6149663;23;20017;-46
2022/10/13 11:33:55;;;;;;;4.07;1.98;;;;;;;;;;6142622;23;20021;-46
2022/10/13 11:36:53;;;;;;;5.07;2.47;;;;;;;;;;6153431;23;20047;-45
2022/10/13 11:39:49;;;;;;;6.30;1.80;;;;;;;;;;6134591;23;20112;-47
2022/10/13 11:42:25;;;;;;;6.15;2.67;;;;;;;;;;6063427;23;20313;-45
2022/10/13 11:44:54;;;;;;;5.43;2.42;;;;;;;;;;6134716;23;20420;-46
2022/10/13 11:47:34;;;;;;;4.80;2.17;;;;;;;;;;6157355;23;20021;-48
2022/10/13 11:50:07;;;;;;;6.03;1.88;;;;;;;;;;6156344;23;20017;-47
2022/10/13 11:52:48;;;;;;;10.00;2.97;;;;;;;;;;6150817;23;20577;-47
2022/10/13 11:55:17;;;;;;;6.50;2.45;;;;;;;;;;6153105;23;20440;-47
2022/10/13 11:57:45;;;;;;;5.30;2.88;;;;;;;;;;6152221;23;20079;-47
2022/10/13 12:00:14;;;;;;;5.28;2.22;;;;;;;;;;6149717;23;20024;-47
2022/10/13 12:02:47;;;;;;;5.75;3.35;;;;;;;;;;6152180;23;20024;-48
2022/10/13 12:05:19;;;;;;;5.13;2.10;;;;;;;;;;6122678;23;20727;-46
2022/10/13 12:07:47;;;;;;;4.35;1.85;;;;;;;;;;6152072;23;20284;-48
2022/10/13 12:10:18;;;;;;;3.35;1.52;;;;;;;;;;6155752;23;20275;-50
2022/10/13 12:13:03;;;;;;;4.80;2.25;;;;;;;;;;6156667;23;20013;-46
2022/10/13 12:15:34;;;;;;;5.95;2.35;;;;;;;;;;6153093;23;20063;-45
2022/10/13 12:18:00;;;;;;;4.83;1.97;;;;;;;;;;6148677;23;20476;-47
2022/10/13 12:20:28;;;;;;;4.35;2.08;;;;;;;;;;6154192;23;20564;-46
2022/10/13 12:22:55;;;;;;;4.75;2.28;;;;;;;;;;6150784;23;20536;-50
2022/10/13 12:25:23;;;;;;;3.67;1.63;;;;;;;;;;6145600;23;20017;-48
2022/10/13 12:27:52;;;;;;;5.97;1.77;;;;;;;;;;6121952;23;20302;-45
2022/10/13 12:30:21;;;;;;;6.30;2.77;;;;;;;;;;6135760;23;20013;-46
2022/10/13 12:32:50;;;;;;;4.75;1.80;;;;;;;;;;6122052;23;20409;-47
2022/10/13 12:35:18;;;;;;;6.15;2.38;;;;;;;;;;6130678;23;20035;-45
2022/10/13 12:37:47;;;;;;;5.25;2.00;;;;;;;;;;6131695;23;20032;-46
2022/10/13 12:40:15;;;;;;;5.38;1.40;;;;;;;;;;6133121;23;20028;-45
2022/10/13 12:42:42;;;;;;;5.27;2.37;;;;;;;;;;6133266;23;20136;-48
2022/10/13 12:45:14;;;;;;;5.38;1.95;;;;;;;;;;6152580;23;20017;-49
2022/10/13 12:47:47;;;;;;;5.43;2.03;;;;;;;;;;6145061;23;20013;-46
2022/10/13 12:50:31;;;;;;;4.93;1.80;;;;;;;;;;6153109;23;20372;-46
2022/10/13 12:53:03;;;;;;;5.28;1.75;;;;;;;;;;6151073;23;20021;-47
2022/10/13 12:55:31;;;;;;;4.20;1.83;;;;;;;;;;6144404;23;20452;-46
2022/10/13 12:58:00;;;;;;;4.07;1.63;;;;;;;;;;6152032;23;20017;-47
2022/10/13 13:00:28;;;;;;;4.97;2.15;;;;;;;;;;6155466;23;20021;-48
2022/10/13 13:02:55;;;;;;;4.60;2.20;;;;;;;;;;6144768;23;20032;-46
2022/10/13 13:05:34;;;;;;;5.53;1.98;;;;;;;;;;6157291;23;20190;-47
2022/10/13 13:08:01;;;;;;;3.17;1.17;;;;;;;;;;6138629;23;20803;-46
2022/10/13 13:10:27;;;;;;;3.97;1.83;;;;;;;;;;6159727;23;20021;-49
2022/10/13 13:12:55;;;;;;;3.85;1.40;;;;;;;;;;6144331;23;20021;-47
2022/10/13 13:15:31;;;;;;;5.40;2.00;;;;;;;;;;6151512;23;20455;-46
2022/10/13 13:18:13;;;;;;;5.15;1.98;;;;;;;;;;6135815;23;20067;-51
2022/10/13 13:20:41;;;;;;;6.07;2.50;;;;;;;;;;6157304;23;20025;-49
2022/10/13 13:23:07;;;;;;;4.57;1.92;;;;;;;;;;6149446;23;20013;-48
2022/10/13 13:25:38;;;;;;;6.25;2.15;;;;;;;;;;6156885;23;20021;-48
2022/10/13 13:28:10;;;;;;;3.55;1.38;;;;;;;;;;6152230;23;20013;-48
2022/10/13 13:30:36;;;;;;;3.10;1.20;;;;;;;;;;6147237;23;20067;-48
2022/10/13 13:33:03;;;;;;;3.83;1.33;;;;;;;;;;6140420;23;20084;-49
2022/10/13 13:35:29;;;;;;;5.15;2.28;;;;;;;;;;6149499;23;20036;-48
2022/10/13 13:37:58;;;;;;;4.22;1.83;;;;;;;;;;6138591;23;20412;-45
2022/10/13 13:40:25;;;;;;;4.85;1.80;;;;;;;;;;6155878;23;20424;-47
2022/10/13 13:42:53;;;;;;;7.05;1.98;;;;;;;;;;6144079;23;20017;-46
2022/10/13 13:45:21;;;;;;;8.10;2.43;;;;;;;;;;6150108;23;20020;-46
2022/10/13 13:47:47;;;;;;;5.75;2.58;;;;;;;;;;6155144;23;20300;-45
2022/10/13 13:50:16;;;;;;;9.35;1.85;;;;;;;;;;6156681;23;20527;-46
2022/10/13 13:52:43;;;;;;;4.25;2.05;;;;;;;;;;6153275;23;20013;-48
2022/10/13 13:55:10;;;;;;;5.85;1.80;;;;;;;;;;6147709;23;20487;-46
2022/10/13 13:57:37;;;;;;;4.43;1.53;;;;;;;;;;6155976;23;20024;-47
2022/10/13 14:00:04;;;;;;;6.32;1.52;;;;;;;;;;6150253;23;20020;-47
2022/10/13 14:02:31;;;;;;;5.22;1.63;;;;;;;;;;6159842;23;20021;-46
2022/10/13 14:04:58;;;;;;;3.78;1.23;;;;;;;;;;6134051;23;20210;-49
2022/10/13 14:07:25;;;;;;;4.13;1.58;;;;;;;;;;6159548;23;20396;-49
2022/10/13 14:09:51;;;;;;;2.87;1.20;;;;;;;;;;6140930;23;20023;-48
2022/10/13 14:12:19;;;;;;;2.83;1.05;;;;;;;;;;6140397;23;20020;-48
2022/10/13 14:45:05;;;;;;;2.03;0.85;;;;;;;;;;6171212;23;20595;-47
2022/10/13 14:47:31;;;;;;;3.15;1.42;;;;;;;;;;6184365;23;20013;-45
2022/10/13 14:50:00;;;;;;;3.63;0.73;;;;;;;;;;6183621;23;20039;-47
2022/10/13 14:52:26;;;;;;;3.25;1.13;;;;;;;;;;6186811;23;20534;-45
2022/10/13 14:54:53;;;;;;;2.93;1.00;;;;;;;;;;6180659;23;20012;-45
2022/10/13 14:57:20;;;;;;;2.42;0.60;;;;;;;;;;6187283;23;20083;-45
2022/10/13 14:59:46;;;;;;;3.25;1.33;;;;;;;;;;6187864;23;20082;-50
2022/10/13 15:02:14;;;;;;;2.90;0.82;;;;;;;;;;6180075;23;20422;-47
2022/10/13 15:04:41;;;;;;;2.55;0.80;;;;;;;;;;6160111;23;20013;-49
2022/10/13 15:07:08;;;;;;;3.47;1.30;;;;;;;;;;6161857;23;20534;-46
2022/10/13 15:09:34;;;;;;;2.53;0.60;;;;;;;;;;6167514;23;20020;-48
2022/10/13 15:12:04;;;;;;;5.85;1.23;;;;;;;;;;6175859;23;20016;-47
2022/10/13 15:14:30;;;;;;;2.35;0.70;;;;;;;;;;6185813;23;20023;-46
2022/10/13 15:16:57;;;;;;;3.15;0.80;;;;;;;;;;6178773;23;20027;-49
2022/10/13 15:19:25;;;;;;;3.20;1.20;;;;;;;;;;6183965;23;20028;-46
2022/10/13 15:21:52;;;;;;;2.20;0.57;;;;;;;;;;6148629;23;20071;-46
2022/10/13 15:24:18;;;;;;;3.42;1.67;;;;;;;;;;6183541;23;20506;-47